sensor_id;sensor_type;location;lat;lon;timestamp;pressure;altitude;pressure_sealevel;temperature
68939;BMP180;59064;45.294;11.816;2024-03-07T00:00:05;101436.60;;;9.28
68939;BMP180;59064;45.294;11.816;2024-03-07T00:02:41;101440.00;;;9.20
68939;BMP180;59064;45.294;11.816;2024-03-07T00:05:06;101434.80;;;9.20
68939;BMP180;59064;45.294;11.816;2024-03-07T00:07:33;101437.00;;;9.20
68939;BMP180;59064;45.294;11.816;2024-03-07T00:10:03;101433.40;;;9.20
68939;BMP180;59064;45.294;11.816;2024-03-07T00:12:34;101437.80;;;9.20
68939;BMP180;59064;45.294;11.816;2024-03-07T00:15:04;101436.00;;;9.18
68939;BMP180;59064;45.294;11.816;2024-03-07T00:17:30;101432.60;;;9.10
68939;BMP180;59064;45.294;11.816;2024-03-07T00:19:56;101433.20;;;9.10
68939;BMP180;59064;45.294;11.816;2024-03-07T00:22:22;101435.20;;;9.10
68939;BMP180;59064;45.294;11.816;2024-03-07T00:24:50;101429.20;;;9.06
68939;BMP180;59064;45.294;11.816;2024-03-07T00:27:16;101430.20;;;9.00
68939;BMP180;59064;45.294;11.816;2024-03-07T00:29:44;101434.40;;;9.00
68939;BMP180;59064;45.294;11.816;2024-03-07T00:32:18;101431.20;;;9.00
68939;BMP180;59064;45.294;11.816;2024-03-07T00:34:44;101434.40;;;9.00
68939;BMP180;59064;45.294;11.816;2024-03-07T00:37:12;101428.60;;;9.00
68939;BMP180;59064;45.294;11.816;2024-03-07T00:39:38;101432.60;;;9.00
68939;BMP180;59064;45.294;11.816;2024-03-07T00:42:03;101429.60;;;9.00
68939;BMP180;59064;45.294;11.816;2024-03-07T00:44:32;101429.40;;;9.00
68939;BMP180;59064;45.294;11.816;2024-03-07T00:47:00;101431.00;;;9.00
68939;BMP180;59064;45.294;11.816;2024-03-07T00:49:30;101433.80;;;9.00
68939;BMP180;59064;45.294;11.816;2024-03-07T00:51:57;101430.00;;;9.00
68939;BMP180;59064;45.294;11.816;2024-03-07T00:54:22;101434.20;;;9.00
68939;BMP180;59064;45.294;11.816;2024-03-07T00:56:48;101434.20;;;9.00
68939;BMP180;59064;45.294;11.816;2024-03-07T00:59:21;101428.40;;;9.00
68939;BMP180;59064;45.294;11.816;2024-03-07T01:01:51;101433.00;;;9.00
68939;BMP180;59064;45.294;11.816;2024-03-07T01:04:19;101435.80;;;9.00
68939;BMP180;59064;45.294;11.816;2024-03-07T01:06:44;101433.80;;;9.00
68939;BMP180;59064;45.294;11.816;2024-03-07T01:09:09;101430.40;;;9.06
68939;BMP180;59064;45.294;11.816;2024-03-07T01:11:41;101431.20;;;9.04
68939;BMP180;59064;45.294;11.816;2024-03-07T01:14:07;101432.00;;;9.00
68939;BMP180;59064;45.294;11.816;2024-03-07T01:16:33;101424.60;;;9.00
68939;BMP180;59064;45.294;11.816;2024-03-07T01:18:59;101423.20;;;8.90
68939;BMP180;59064;45.294;11.816;2024-03-07T01:21:27;101419.00;;;8.90
68939;BMP180;59064;45.294;11.816;2024-03-07T01:23:55;101424.60;;;8.88
68939;BMP180;59064;45.294;11.816;2024-03-07T01:26:34;101422.40;;;8.80
68939;BMP180;59064;45.294;11.816;2024-03-07T01:29:02;101419.40;;;8.80
68939;BMP180;59064;45.294;11.816;2024-03-07T01:31:27;101418.60;;;8.80
68939;BMP180;59064;45.294;11.816;2024-03-07T01:33:53;101412.60;;;8.80
68939;BMP180;59064;45.294;11.816;2024-03-07T01:36:19;101409.40;;;8.78
68939;BMP180;59064;45.294;11.816;2024-03-07T01:38:47;101402.40;;;8.80
68939;BMP180;59064;45.294;11.816;2024-03-07T01:41:13;101400.20;;;8.70
68939;BMP180;59064;45.294;11.816;2024-03-07T01:43:40;101403.00;;;8.70
68939;BMP180;59064;45.294;11.816;2024-03-07T01:46:09;101400.20;;;8.70
68939;BMP180;59064;45.294;11.816;2024-03-07T01:48:35;101400.80;;;8.70
68939;BMP180;59064;45.294;11.816;2024-03-07T01:51:01;101403.00;;;8.70
68939;BMP180;59064;45.294;11.816;2024-03-07T01:53:30;101402.20;;;8.70
68939;BMP180;59064;45.294;11.816;2024-03-07T01:55:56;101404.20;;;8.70
68939;BMP180;59064;45.294;11.816;2024-03-07T01:58:23;101404.40;;;8.70
68939;BMP180;59064;45.294;11.816;2024-03-07T02:00:49;101403.60;;;8.70
68939;BMP180;59064;45.294;11.816;2024-03-07T02:03:16;101401.40;;;8.70
68939;BMP180;59064;45.294;11.816;2024-03-07T02:05:42;101395.20;;;8.72
68939;BMP180;59064;45.294;11.816;2024-03-07T02:08:08;101398.00;;;8.80
68939;BMP180;59064;45.294;11.816;2024-03-07T02:10:33;101391.60;;;8.78
68939;BMP180;59064;45.294;11.816;2024-03-07T02:12:59;101392.60;;;8.74
68939;BMP180;59064;45.294;11.816;2024-03-07T02:15:26;101395.00;;;8.70
68939;BMP180;59064;45.294;11.816;2024-03-07T02:17:52;101400.60;;;8.70
68939;BMP180;59064;45.294;11.816;2024-03-07T02:20:17;101397.60;;;8.70
68939;BMP180;59064;45.294;11.816;2024-03-07T02:22:43;101399.40;;;8.70
68939;BMP180;59064;45.294;11.816;2024-03-07T02:25:11;101390.40;;;8.70
68939;BMP180;59064;45.294;11.816;2024-03-07T02:27:38;101391.80;;;8.60
68939;BMP180;59064;45.294;11.816;2024-03-07T02:30:04;101388.80;;;8.60
68939;BMP180;59064;45.294;11.816;2024-03-07T02:32:34;101387.80;;;8.58
68939;BMP180;59064;45.294;11.816;2024-03-07T02:34:59;101384.20;;;8.60
68939;BMP180;59064;45.294;11.816;2024-03-07T02:37:25;101386.80;;;8.56
68939;BMP180;59064;45.294;11.816;2024-03-07T02:39:50;101383.60;;;8.50
68939;BMP180;59064;45.294;11.816;2024-03-07T02:42:15;101382.40;;;8.50
68939;BMP180;59064;45.294;11.816;2024-03-07T02:44:41;101383.20;;;8.50
68939;BMP180;59064;45.294;11.816;2024-03-07T02:47:07;101382.20;;;8.46
68939;BMP180;59064;45.294;11.816;2024-03-07T02:49:33;101386.60;;;8.40
68939;BMP180;59064;45.294;11.816;2024-03-07T02:51:58;101383.60;;;8.40
68939;BMP180;59064;45.294;11.816;2024-03-07T02:54:24;101384.00;;;8.40
68939;BMP180;59064;45.294;11.816;2024-03-07T02:56:49;101378.00;;;8.38
68939;BMP180;59064;45.294;11.816;2024-03-07T02:59:19;101381.20;;;8.36
68939;BMP180;59064;45.294;11.816;2024-03-07T03:01:45;101379.80;;;8.30
68939;BMP180;59064;45.294;11.816;2024-03-07T03:04:12;101379.00;;;8.30
68939;BMP180;59064;45.294;11.816;2024-03-07T03:06:38;101377.80;;;8.30
68939;BMP180;59064;45.294;11.816;2024-03-07T03:09:03;101382.80;;;8.30
68939;BMP180;59064;45.294;11.816;2024-03-07T03:11:30;101378.00;;;8.30
68939;BMP180;59064;45.294;11.816;2024-03-07T03:13:58;101378.60;;;8.20
68939;BMP180;59064;45.294;11.816;2024-03-07T03:16:23;101385.40;;;8.20
68939;BMP180;59064;45.294;11.816;2024-03-07T03:18:49;101389.00;;;8.20
68939;BMP180;59064;45.294;11.816;2024-03-07T03:21:14;101380.80;;;8.10
68939;BMP180;59064;45.294;11.816;2024-03-07T03:23:41;101384.40;;;8.10
68939;BMP180;59064;45.294;11.816;2024-03-07T03:26:09;101385.60;;;8.10
68939;BMP180;59064;45.294;11.816;2024-03-07T03:28:34;101384.40;;;8.10
68939;BMP180;59064;45.294;11.816;2024-03-07T03:31:00;101387.60;;;8.10
68939;BMP180;59064;45.294;11.816;2024-03-07T03:33:25;101393.40;;;8.06
68939;BMP180;59064;45.294;11.816;2024-03-07T03:35:51;101392.40;;;8.04
68939;BMP180;59064;45.294;11.816;2024-03-07T03:38:19;101392.60;;;8.10
68939;BMP180;59064;45.294;11.816;2024-03-07T03:40:45;101390.80;;;8.10
68939;BMP180;59064;45.294;11.816;2024-03-07T03:43:10;101393.20;;;8.10
68939;BMP180;59064;45.294;11.816;2024-03-07T03:45:36;101392.20;;;8.06
68939;BMP180;59064;45.294;11.816;2024-03-07T03:48:01;101394.60;;;8.02
68939;BMP180;59064;45.294;11.816;2024-03-07T03:50:27;101394.00;;;8.00
68939;BMP180;59064;45.294;11.816;2024-03-07T03:52:53;101393.00;;;8.00
68939;BMP180;59064;45.294;11.816;2024-03-07T03:55:19;101394.20;;;8.00
68939;BMP180;59064;45.294;11.816;2024-03-07T03:57:45;101397.00;;;8.00
68939;BMP180;59064;45.294;11.816;2024-03-07T04:00:12;101397.40;;;7.90
68939;BMP180;59064;45.294;11.816;2024-03-07T04:02:45;101394.40;;;7.90
68939;BMP180;59064;45.294;11.816;2024-03-07T04:05:13;101391.60;;;7.90
68939;BMP180;59064;45.294;11.816;2024-03-07T04:07:40;101392.60;;;7.82
68939;BMP180;59064;45.294;11.816;2024-03-07T04:10:07;101392.20;;;7.80
68939;BMP180;59064;45.294;11.816;2024-03-07T04:12:34;101390.80;;;7.80
68939;BMP180;59064;45.294;11.816;2024-03-07T04:15:00;101384.20;;;7.80
68939;BMP180;59064;45.294;11.816;2024-03-07T04:17:26;101384.80;;;7.80
68939;BMP180;59064;45.294;11.816;2024-03-07T04:19:53;101385.80;;;7.80
68939;BMP180;59064;45.294;11.816;2024-03-07T04:22:18;101385.20;;;7.80
68939;BMP180;59064;45.294;11.816;2024-03-07T04:24:47;101388.00;;;7.70
68939;BMP180;59064;45.294;11.816;2024-03-07T04:27:13;101389.60;;;7.70
68939;BMP180;59064;45.294;11.816;2024-03-07T04:29:41;101390.20;;;7.70
68939;BMP180;59064;45.294;11.816;2024-03-07T04:32:06;101396.40;;;7.72
68939;BMP180;59064;45.294;11.816;2024-03-07T04:34:32;101397.00;;;7.70
68939;BMP180;59064;45.294;11.816;2024-03-07T04:36:58;101396.40;;;7.70
68939;BMP180;59064;45.294;11.816;2024-03-07T04:39:27;101393.00;;;7.70
68939;BMP180;59064;45.294;11.816;2024-03-07T04:41:59;101391.40;;;7.70
68939;BMP180;59064;45.294;11.816;2024-03-07T04:44:31;101390.80;;;7.70
68939;BMP180;59064;45.294;11.816;2024-03-07T04:46:58;101395.00;;;7.78
68939;BMP180;59064;45.294;11.816;2024-03-07T04:49:27;101394.60;;;7.72
68939;BMP180;59064;45.294;11.816;2024-03-07T04:51:55;101393.80;;;7.80
68939;BMP180;59064;45.294;11.816;2024-03-07T04:54:22;101390.20;;;7.80
68939;BMP180;59064;45.294;11.816;2024-03-07T04:56:48;101395.60;;;7.80
68939;BMP180;59064;45.294;11.816;2024-03-07T04:59:15;101394.20;;;7.80
68939;BMP180;59064;45.294;11.816;2024-03-07T05:01:42;101391.00;;;7.80
68939;BMP180;59064;45.294;11.816;2024-03-07T05:04:08;101385.80;;;7.80
68939;BMP180;59064;45.294;11.816;2024-03-07T05:06:34;101393.80;;;7.80
68939;BMP180;59064;45.294;11.816;2024-03-07T05:09:03;101393.20;;;7.78
68939;BMP180;59064;45.294;11.816;2024-03-07T05:11:33;101392.20;;;7.70
68939;BMP180;59064;45.294;11.816;2024-03-07T05:13:59;101391.80;;;7.70
68939;BMP180;59064;45.294;11.816;2024-03-07T05:16:25;101394.40;;;7.70
68939;BMP180;59064;45.294;11.816;2024-03-07T05:18:51;101398.20;;;7.70
68939;BMP180;59064;45.294;11.816;2024-03-07T05:21:19;101402.80;;;7.70
68939;BMP180;59064;45.294;11.816;2024-03-07T05:24:06;101403.20;;;7.70
68939;BMP180;59064;45.294;11.816;2024-03-07T05:26:36;101409.00;;;7.70
68939;BMP180;59064;45.294;11.816;2024-03-07T05:29:09;101411.40;;;7.68
68939;BMP180;59064;45.294;11.816;2024-03-07T05:31:38;101410.40;;;7.70
68939;BMP180;59064;45.294;11.816;2024-03-07T05:34:09;101416.80;;;7.70
68939;BMP180;59064;45.294;11.816;2024-03-07T05:36:35;101413.80;;;7.68
68939;BMP180;59064;45.294;11.816;2024-03-07T05:39:02;101410.40;;;7.70
68939;BMP180;59064;45.294;11.816;2024-03-07T05:41:35;101415.00;;;7.70
68939;BMP180;59064;45.294;11.816;2024-03-07T05:44:00;101417.60;;;7.70
68939;BMP180;59064;45.294;11.816;2024-03-07T05:46:26;101417.80;;;7.70
68939;BMP180;59064;45.294;11.816;2024-03-07T05:48:51;101422.60;;;7.76
68939;BMP180;59064;45.294;11.816;2024-03-07T05:51:22;101423.00;;;7.80
68939;BMP180;59064;45.294;11.816;2024-03-07T05:53:48;101425.00;;;7.80
68939;BMP180;59064;45.294;11.816;2024-03-07T05:56:15;101429.20;;;7.80
68939;BMP180;59064;45.294;11.816;2024-03-07T05:58:41;101432.60;;;7.90
68939;BMP180;59064;45.294;11.816;2024-03-07T06:01:06;101431.00;;;7.90
68939;BMP180;59064;45.294;11.816;2024-03-07T06:03:36;101432.60;;;7.90
68939;BMP180;59064;45.294;11.816;2024-03-07T06:06:01;101432.20;;;7.98
68939;BMP180;59064;45.294;11.816;2024-03-07T06:08:27;101428.80;;;8.00
68939;BMP180;59064;45.294;11.816;2024-03-07T06:10:55;101429.20;;;8.00
68939;BMP180;59064;45.294;11.816;2024-03-07T06:13:20;101432.20;;;8.06
68939;BMP180;59064;45.294;11.816;2024-03-07T06:15:48;101435.40;;;8.10
68939;BMP180;59064;45.294;11.816;2024-03-07T06:18:14;101436.00;;;8.10
68939;BMP180;59064;45.294;11.816;2024-03-07T06:20:43;101435.20;;;8.16
68939;BMP180;59064;45.294;11.816;2024-03-07T06:23:11;101438.20;;;8.20
68939;BMP180;59064;45.294;11.816;2024-03-07T06:25:41;101444.00;;;8.20
68939;BMP180;59064;45.294;11.816;2024-03-07T06:28:17;101445.40;;;8.22
68939;BMP180;59064;45.294;11.816;2024-03-07T06:30:46;101446.40;;;8.30
68939;BMP180;59064;45.294;11.816;2024-03-07T06:33:13;101451.20;;;8.30
68939;BMP180;59064;45.294;11.816;2024-03-07T06:35:39;101454.80;;;8.32
68939;BMP180;59064;45.294;11.816;2024-03-07T06:38:08;101452.60;;;8.40
68939;BMP180;59064;45.294;11.816;2024-03-07T06:40:35;101459.20;;;8.40
68939;BMP180;59064;45.294;11.816;2024-03-07T06:43:01;101459.60;;;8.40
68939;BMP180;59064;45.294;11.816;2024-03-07T06:45:34;101463.20;;;8.48
68939;BMP180;59064;45.294;11.816;2024-03-07T06:48:00;101467.00;;;8.50
68939;BMP180;59064;45.294;11.816;2024-03-07T06:50:26;101467.20;;;8.50
68939;BMP180;59064;45.294;11.816;2024-03-07T06:52:54;101465.00;;;8.50
68939;BMP180;59064;45.294;11.816;2024-03-07T06:55:19;101465.60;;;8.50
68939;BMP180;59064;45.294;11.816;2024-03-07T06:57:45;101471.40;;;8.50
68939;BMP180;59064;45.294;11.816;2024-03-07T07:00:15;101473.80;;;8.50
68939;BMP180;59064;45.294;11.816;2024-03-07T07:02:50;101475.20;;;8.58
68939;BMP180;59064;45.294;11.816;2024-03-07T07:05:16;101480.20;;;8.60
68939;BMP180;59064;45.294;11.816;2024-03-07T07:07:44;101479.20;;;8.60
68939;BMP180;59064;45.294;11.816;2024-03-07T07:10:10;101480.60;;;8.60
68939;BMP180;59064;45.294;11.816;2024-03-07T07:12:50;101480.80;;;8.70
68939;BMP180;59064;45.294;11.816;2024-03-07T07:15:20;101481.20;;;8.70
68939;BMP180;59064;45.294;11.816;2024-03-07T07:17:46;101476.20;;;8.72
68939;BMP180;59064;45.294;11.816;2024-03-07T07:20:14;101478.00;;;8.80
68939;BMP180;59064;45.294;11.816;2024-03-07T07:22:41;101485.60;;;8.80
68939;BMP180;59064;45.294;11.816;2024-03-07T07:25:10;101486.00;;;8.80
68939;BMP180;59064;45.294;11.816;2024-03-07T07:27:43;101480.80;;;8.78
68939;BMP180;59064;45.294;11.816;2024-03-07T07:30:17;101490.40;;;8.80
68939;BMP180;59064;45.294;11.816;2024-03-07T07:32:43;101492.40;;;8.80
68939;BMP180;59064;45.294;11.816;2024-03-07T07:35:10;101494.40;;;8.80
68939;BMP180;59064;45.294;11.816;2024-03-07T07:37:41;101492.60;;;8.80
68939;BMP180;59064;45.294;11.816;2024-03-07T07:40:11;101496.60;;;8.80
68939;BMP180;59064;45.294;11.816;2024-03-07T07:42:41;101492.00;;;8.80
68939;BMP180;59064;45.294;11.816;2024-03-07T07:45:10;101492.40;;;8.80
68939;BMP180;59064;45.294;11.816;2024-03-07T07:47:39;101495.80;;;8.88
68939;BMP180;59064;45.294;11.816;2024-03-07T07:50:10;101497.40;;;8.90
68939;BMP180;59064;45.294;11.816;2024-03-07T07:52:46;101499.60;;;8.92
68939;BMP180;59064;45.294;11.816;2024-03-07T07:55:16;101499.80;;;9.00
68939;BMP180;59064;45.294;11.816;2024-03-07T07:57:46;101501.00;;;9.02
68939;BMP180;59064;45.294;11.816;2024-03-07T08:00:16;101498.20;;;9.10
68939;BMP180;59064;45.294;11.816;2024-03-07T08:05:15;101498.60;;;9.30
68939;BMP180;59064;45.294;11.816;2024-03-07T08:07:46;101500.80;;;9.40
68939;BMP180;59064;45.294;11.816;2024-03-07T08:10:14;101498.60;;;9.50
68939;BMP180;59064;45.294;11.816;2024-03-07T08:12:41;101497.60;;;9.56
68939;BMP180;59064;45.294;11.816;2024-03-07T08:15:10;101498.80;;;9.60
68939;BMP180;59064;45.294;11.816;2024-03-07T08:17:42;101500.60;;;9.70
68939;BMP180;59064;45.294;11.816;2024-03-07T08:20:13;101500.60;;;9.84
68939;BMP180;59064;45.294;11.816;2024-03-07T08:22:40;101502.40;;;10.00
68939;BMP180;59064;45.294;11.816;2024-03-07T08:25:07;101502.40;;;10.14
68939;BMP180;59064;45.294;11.816;2024-03-07T08:27:36;101502.60;;;10.30
68939;BMP180;59064;45.294;11.816;2024-03-07T08:30:03;101501.20;;;10.50
68939;BMP180;59064;45.294;11.816;2024-03-07T08:32:29;101498.80;;;10.70
68939;BMP180;59064;45.294;11.816;2024-03-07T08:34:54;101500.60;;;10.90
68939;BMP180;59064;45.294;11.816;2024-03-07T08:37:20;101499.60;;;11.18
68939;BMP180;59064;45.294;11.816;2024-03-07T08:39:46;101501.40;;;11.26
68939;BMP180;59064;45.294;11.816;2024-03-07T08:42:12;101503.40;;;11.40
68939;BMP180;59064;45.294;11.816;2024-03-07T08:58:05;101509.00;;;11.58
68939;BMP180;59064;45.294;11.816;2024-03-07T09:00:33;101507.80;;;11.50
68939;BMP180;59064;45.294;11.816;2024-03-07T09:02:59;101509.20;;;11.50
68939;BMP180;59064;45.294;11.816;2024-03-07T09:05:48;101505.60;;;11.40
68939;BMP180;59064;45.294;11.816;2024-03-07T09:08:15;101510.00;;;11.32
68939;BMP180;59064;45.294;11.816;2024-03-07T09:10:41;101506.20;;;11.22
68939;BMP180;59064;45.294;11.816;2024-03-07T09:13:06;101513.60;;;11.20
68939;BMP180;59064;45.294;11.816;2024-03-07T09:15:32;101516.40;;;11.20
68939;BMP180;59064;45.294;11.816;2024-03-07T09:17:58;101511.80;;;11.20
68939;BMP180;59064;45.294;11.816;2024-03-07T09:20:24;101508.20;;;11.20
68939;BMP180;59064;45.294;11.816;2024-03-07T09:22:49;101506.40;;;11.10
68939;BMP180;59064;45.294;11.816;2024-03-07T09:25:16;101509.80;;;11.00
68939;BMP180;59064;45.294;11.816;2024-03-07T09:27:42;101512.00;;;10.94
68939;BMP180;59064;45.294;11.816;2024-03-07T09:30:08;101515.40;;;10.90
68939;BMP180;59064;45.294;11.816;2024-03-07T09:35:49;101520.60;;;10.90
68939;BMP180;59064;45.294;11.816;2024-03-07T09:38:14;101517.40;;;10.86
68939;BMP180;59064;45.294;11.816;2024-03-07T09:40:40;101518.40;;;10.80
68939;BMP180;59064;45.294;11.816;2024-03-07T09:43:06;101515.60;;;10.80
68939;BMP180;59064;45.294;11.816;2024-03-07T09:45:35;101516.20;;;10.80
68939;BMP180;59064;45.294;11.816;2024-03-07T09:48:01;101522.40;;;10.80
68939;BMP180;59064;45.294;11.816;2024-03-07T09:50:29;101523.60;;;10.80
68939;BMP180;59064;45.294;11.816;2024-03-07T09:52:56;101522.60;;;10.80
68939;BMP180;59064;45.294;11.816;2024-03-07T09:55:22;101523.60;;;10.80
68939;BMP180;59064;45.294;11.816;2024-03-07T09:57:49;101527.80;;;10.80
68939;BMP180;59064;45.294;11.816;2024-03-07T10:00:19;101523.80;;;10.80
68939;BMP180;59064;45.294;11.816;2024-03-07T10:02:58;101528.20;;;10.90
68939;BMP180;59064;45.294;11.816;2024-03-07T10:05:27;101536.80;;;10.90
68939;BMP180;59064;45.294;11.816;2024-03-07T10:07:53;101534.60;;;11.00
68939;BMP180;59064;45.294;11.816;2024-03-07T10:10:19;101534.40;;;11.00
68939;BMP180;59064;45.294;11.816;2024-03-07T10:12:45;101537.00;;;11.00
68939;BMP180;59064;45.294;11.816;2024-03-07T10:15:11;101532.60;;;11.00
68939;BMP180;59064;45.294;11.816;2024-03-07T10:17:41;101534.00;;;11.10
68939;BMP180;59064;45.294;11.816;2024-03-07T10:20:08;101536.60;;;11.10
68939;BMP180;59064;45.294;11.816;2024-03-07T10:22:41;101533.80;;;11.20
68939;BMP180;59064;45.294;11.816;2024-03-07T10:25:07;101536.40;;;11.20
68939;BMP180;59064;45.294;11.816;2024-03-07T10:27:36;101538.20;;;11.20
68939;BMP180;59064;45.294;11.816;2024-03-07T10:30:02;101537.60;;;11.22
68939;BMP180;59064;45.294;11.816;2024-03-07T10:32:27;101542.20;;;11.30
68939;BMP180;59064;45.294;11.816;2024-03-07T10:34:53;101542.60;;;11.30
68939;BMP180;59064;45.294;11.816;2024-03-07T10:37:20;101540.60;;;11.30
68939;BMP180;59064;45.294;11.816;2024-03-07T10:39:50;101535.00;;;11.30
68939;BMP180;59064;45.294;11.816;2024-03-07T10:42:17;101535.40;;;11.40
68939;BMP180;59064;45.294;11.816;2024-03-07T10:44:43;101541.40;;;11.40
68939;BMP180;59064;45.294;11.816;2024-03-07T10:49:48;101543.20;;;11.62
68939;BMP180;59064;45.294;11.816;2024-03-07T10:52:28;101545.00;;;11.76
68939;BMP180;59064;45.294;11.816;2024-03-07T10:57:50;101547.60;;;11.90
68939;BMP180;59064;45.294;11.816;2024-03-07T11:00:19;101549.80;;;11.90
68939;BMP180;59064;45.294;11.816;2024-03-07T11:02:56;101548.20;;;11.90
68939;BMP180;59064;45.294;11.816;2024-03-07T11:05:25;101549.20;;;12.04
68939;BMP180;59064;45.294;11.816;2024-03-07T11:07:55;101551.40;;;12.16
68939;BMP180;59064;45.294;11.816;2024-03-07T11:10:24;101548.80;;;12.30
68939;BMP180;59064;45.294;11.816;2024-03-07T11:12:50;101545.80;;;12.50
68939;BMP180;59064;45.294;11.816;2024-03-07T11:15:18;101548.60;;;12.70
68939;BMP180;59064;45.294;11.816;2024-03-07T11:17:46;101550.80;;;12.80
68939;BMP180;59064;45.294;11.816;2024-03-07T11:22:46;101542.40;;;13.26
68939;BMP180;59064;45.294;11.816;2024-03-07T11:25:12;101535.80;;;13.48
68939;BMP180;59064;45.294;11.816;2024-03-07T11:27:38;101531.40;;;13.68
68939;BMP180;59064;45.294;11.816;2024-03-07T11:30:09;101525.80;;;13.94
68939;BMP180;59064;45.294;11.816;2024-03-07T11:32:36;101521.80;;;14.00
68939;BMP180;59064;45.294;11.816;2024-03-07T11:35:11;101521.00;;;14.00
68939;BMP180;59064;45.294;11.816;2024-03-07T11:37:43;101517.20;;;14.30
68939;BMP180;59064;45.294;11.816;2024-03-07T11:40:36;101512.40;;;14.40
68939;BMP180;59064;45.294;11.816;2024-03-07T11:43:00;101515.20;;;14.60
68939;BMP180;59064;45.294;11.816;2024-03-07T11:45:30;101516.60;;;14.70
68939;BMP180;59064;45.294;11.816;2024-03-07T11:47:59;101514.20;;;14.90
68939;BMP180;59064;45.294;11.816;2024-03-07T11:50:47;101506.00;;;14.96
68939;BMP180;59064;45.294;11.816;2024-03-07T11:53:46;101504.80;;;15.10
68939;BMP180;59064;45.294;11.816;2024-03-07T11:56:13;101503.40;;;15.30
68939;BMP180;59064;45.294;11.816;2024-03-07T11:58:43;101499.80;;;15.60
68939;BMP180;59064;45.294;11.816;2024-03-07T12:04:31;101496.80;;;17.00
68939;BMP180;59064;45.294;11.816;2024-03-07T12:07:00;101499.80;;;17.00
68939;BMP180;59064;45.294;11.816;2024-03-07T12:09:25;101497.40;;;17.12
68939;BMP180;59064;45.294;11.816;2024-03-07T12:11:51;101496.00;;;17.40
68939;BMP180;59064;45.294;11.816;2024-03-07T12:14:21;101493.20;;;17.40
68939;BMP180;59064;45.294;11.816;2024-03-07T12:16:47;101491.00;;;17.40
68939;BMP180;59064;45.294;11.816;2024-03-07T12:19:13;101488.80;;;17.50
68939;BMP180;59064;45.294;11.816;2024-03-07T12:21:43;101488.00;;;17.70
68939;BMP180;59064;45.294;11.816;2024-03-07T12:24:15;101483.40;;;17.80
68939;BMP180;59064;45.294;11.816;2024-03-07T12:26:41;101487.20;;;17.80
68939;BMP180;59064;45.294;11.816;2024-03-07T12:29:11;101483.20;;;17.70
68939;BMP180;59064;45.294;11.816;2024-03-07T12:31:38;101480.60;;;17.70
68939;BMP180;59064;45.294;11.816;2024-03-07T12:34:04;101479.40;;;17.60
68939;BMP180;59064;45.294;11.816;2024-03-07T12:36:31;101472.40;;;17.26
68939;BMP180;59064;45.294;11.816;2024-03-07T12:39:03;101471.60;;;17.00
68939;BMP180;59064;45.294;11.816;2024-03-07T12:41:50;101470.80;;;16.58
68939;BMP180;59064;45.294;11.816;2024-03-07T12:44:19;101469.40;;;16.30
68939;BMP180;59064;45.294;11.816;2024-03-07T12:46:54;101467.00;;;16.40
68939;BMP180;59064;45.294;11.816;2024-03-07T12:49:24;101467.00;;;16.40
68939;BMP180;59064;45.294;11.816;2024-03-07T12:51:55;101466.80;;;16.50
68939;BMP180;59064;45.294;11.816;2024-03-07T12:54:22;101461.80;;;16.70
68939;BMP180;59064;45.294;11.816;2024-03-07T12:56:48;101462.20;;;16.62
68939;BMP180;59064;45.294;11.816;2024-03-07T12:59:16;101457.40;;;16.40
68939;BMP180;59064;45.294;11.816;2024-03-07T13:01:42;101461.60;;;16.32
68939;BMP180;59064;45.294;11.816;2024-03-07T13:04:11;101461.00;;;16.30
68939;BMP180;59064;45.294;11.816;2024-03-07T13:06:36;101458.80;;;16.26
68939;BMP180;59064;45.294;11.816;2024-03-07T13:09:02;101451.60;;;16.00
68939;BMP180;59064;45.294;11.816;2024-03-07T13:11:36;101448.40;;;15.82
68939;BMP180;59064;45.294;11.816;2024-03-07T13:14:06;101448.60;;;15.80
68939;BMP180;59064;45.294;11.816;2024-03-07T13:16:32;101441.80;;;15.70
68939;BMP180;59064;45.294;11.816;2024-03-07T13:18:58;101440.40;;;15.70
68939;BMP180;59064;45.294;11.816;2024-03-07T13:21:23;101439.60;;;15.60
68939;BMP180;59064;45.294;11.816;2024-03-07T13:23:49;101437.00;;;15.50
68939;BMP180;59064;45.294;11.816;2024-03-07T13:26:17;101438.80;;;15.40
68939;BMP180;59064;45.294;11.816;2024-03-07T13:28:50;101434.40;;;15.20
68939;BMP180;59064;45.294;11.816;2024-03-07T13:31:15;101438.00;;;15.10
68939;BMP180;59064;45.294;11.816;2024-03-07T13:33:43;101438.20;;;15.10
68939;BMP180;59064;45.294;11.816;2024-03-07T13:36:09;101435.40;;;15.04
68939;BMP180;59064;45.294;11.816;2024-03-07T13:38:34;101432.40;;;14.96
68939;BMP180;59064;45.294;11.816;2024-03-07T13:41:00;101431.80;;;14.90
68939;BMP180;59064;45.294;11.816;2024-03-07T13:43:32;101434.60;;;14.90
68939;BMP180;59064;45.294;11.816;2024-03-07T13:45:59;101433.60;;;14.86
68939;BMP180;59064;45.294;11.816;2024-03-07T13:48:25;101436.20;;;14.74
68939;BMP180;59064;45.294;11.816;2024-03-07T13:50:51;101441.60;;;14.70
68939;BMP180;59064;45.294;11.816;2024-03-07T13:53:19;101442.00;;;14.60
68939;BMP180;59064;45.294;11.816;2024-03-07T13:58:50;101436.60;;;14.60
68939;BMP180;59064;45.294;11.816;2024-03-07T14:04:50;101431.60;;;14.70
68939;BMP180;59064;45.294;11.816;2024-03-07T14:16:02;101431.80;;;14.58
68939;BMP180;59064;45.294;11.816;2024-03-07T14:21:58;101427.60;;;14.76
68939;BMP180;59064;45.294;11.816;2024-03-07T14:27:33;101423.80;;;14.70
68939;BMP180;59064;45.294;11.816;2024-03-07T14:32:37;101426.20;;;14.60
68939;BMP180;59064;45.294;11.816;2024-03-07T14:35:25;101427.20;;;14.50
68939;BMP180;59064;45.294;11.816;2024-03-07T14:38:05;101426.00;;;14.32
68939;BMP180;59064;45.294;11.816;2024-03-07T14:40:31;101417.80;;;14.20
68939;BMP180;59064;45.294;11.816;2024-03-07T14:43:00;101424.80;;;14.10
68939;BMP180;59064;45.294;11.816;2024-03-07T14:45:35;101424.40;;;14.10
68939;BMP180;59064;45.294;11.816;2024-03-07T14:48:02;101422.60;;;14.00
68939;BMP180;59064;45.294;11.816;2024-03-07T14:50:30;101422.00;;;13.92